Aérodrome :
LOGIN :

S'inscrire | Disclaimer

   EN    FR    IT 

 










Légende :    VFR   VFR Marginal   IFR   IFR Intensif   IFR Très Intensif
Visi : 
Plafond : 
>= 8 km
>= 3000ft
5 à 8 km
1000 à 3000 ft
1500m à 5 km
500 à 1000 ft
800 à 1500m
200 à 500 ft
< 800m
< 200 ft
Symboles :   Orages  Brouillard  Fortes neiges  Fortes précipitations  Vent > 20 kt
SIGMETs :   Divers  Orages  Givrage  Turbulence  Onde Orograph.  Cendres Volcan.







- Altitude de l'aérodrome : 257 ft
- Code IATA : MAN
- Voir les cartes d'approche


EGCC - Manchester

DERNIER METAR :
  • 141820Z AUTO 12006KT 070V170 9999 NCD 01/M03 Q1021 NOSIG

METARs EXPIRÉS :
  • 141750Z AUTO 11004KT 060V170 9999 NCD 01/M03 Q1022 NOSIG
  • 141720Z AUTO 12004KT 080V170 9999 NCD 01/M03 Q1022 NOSIG
  • 141650Z AUTO 12004KT 080V170 9999 NCD 01/M03 Q1022
  • 141620Z AUTO 12004KT 080V160 9999 NCD 01/M03 Q1022 NOSIG
  • 141550Z AUTO 13004KT 090V200 9999 NCD 02/M03 Q1022

TAF TAF EGCC
Valide du 14 à 18h jusqu'au 16 à 00h UTC


141706Z 1418/1524 13007KT 9999 SCT030
TEMPO 1418/1518 15015G25KT
PROB30
TEMPO 1505/1518 15020G35KT
TEMPO 1509/1520 6000 RA
PROB30
TEMPO 1509/1518 4000 FZRA BKN010
BECMG 1519/1522 20015KT
TEMPO 1521/1524 21018G28KT
ATIS : +44 161 499 2324
Pas de NOTAMs connus pour ce terrain.



MET'MAP, la Météo Aéronautique d'un coup d'oeil ! - Copyright ORBIFLY Décembre 2007 - Disclaimer

ORBIFLY MET'MAP TEAM :

Programmation & Développement : Alexandra Zaïnal
Conception & Développement : Baudouin d'Aumeries
Co-Programmation & Développement : Marc-Olivier Méhu
Soutien technique & logistique : Manuel Goepfert

Contact : metmap@orbifly.com




SOURCES & CREDITS :

   NOAA